sensor_id;sensor_type;location;lat;lon;timestamp;temperature;humidity
49615;DHT22;35517;45.272;9.984;2022-11-06T00:00:41;11.80;99.90
49615;DHT22;35517;45.272;9.984;2022-11-06T00:03:08;11.70;99.90
49615;DHT22;35517;45.272;9.984;2022-11-06T00:05:39;11.60;99.90
49615;DHT22;35517;45.272;9.984;2022-11-06T00:08:33;11.60;99.90
49615;DHT22;35517;45.272;9.984;2022-11-06T00:11:00;11.70;99.90
49615;DHT22;35517;45.272;9.984;2022-11-06T00:13:26;11.60;99.90
49615;DHT22;35517;45.272;9.984;2022-11-06T00:15:53;11.60;99.90
49615;DHT22;35517;45.272;9.984;2022-11-06T00:18:19;11.60;99.90
49615;DHT22;35517;45.272;9.984;2022-11-06T00:20:46;11.50;99.90
49615;DHT22;35517;45.272;9.984;2022-11-06T00:23:12;11.60;99.90
49615;DHT22;35517;45.272;9.984;2022-11-06T00:25:39;11.60;99.90
49615;DHT22;35517;45.272;9.984;2022-11-06T00:28:06;11.50;99.90
49615;DHT22;35517;45.272;9.984;2022-11-06T00:30:32;11.50;99.90
49615;DHT22;35517;45.272;9.984;2022-11-06T00:32:58;11.60;99.90
49615;DHT22;35517;45.272;9.984;2022-11-06T00:35:25;11.70;99.90
49615;DHT22;35517;45.272;9.984;2022-11-06T00:37:51;11.50;99.90
49615;DHT22;35517;45.272;9.984;2022-11-06T00:40:17;11.50;99.90
49615;DHT22;35517;45.272;9.984;2022-11-06T00:42:43;11.50;99.90
49615;DHT22;35517;45.272;9.984;2022-11-06T00:45:10;11.60;99.90
49615;DHT22;35517;45.272;9.984;2022-11-06T00:47:36;11.50;99.90
49615;DHT22;35517;45.272;9.984;2022-11-06T00:50:03;11.70;99.90
49615;DHT22;35517;45.272;9.984;2022-11-06T00:52:29;11.60;99.90
49615;DHT22;35517;45.272;9.984;2022-11-06T00:54:56;11.50;99.90
49615;DHT22;35517;45.272;9.984;2022-11-06T00:57:22;11.40;99.90
49615;DHT22;35517;45.272;9.984;2022-11-06T00:59:48;11.50;99.90
49615;DHT22;35517;45.272;9.984;2022-11-06T01:02:14;11.50;99.90
49615;DHT22;35517;45.272;9.984;2022-11-06T01:04:44;11.40;99.90
49615;DHT22;35517;45.272;9.984;2022-11-06T01:07:10;11.40;99.90
49615;DHT22;35517;45.272;9.984;2022-11-06T01:09:36;11.30;99.90
49615;DHT22;35517;45.272;9.984;2022-11-06T01:12:03;11.30;99.90
49615;DHT22;35517;45.272;9.984;2022-11-06T01:14:30;11.20;99.90
49615;DHT22;35517;45.272;9.984;2022-11-06T01:16:56;11.20;99.90
49615;DHT22;35517;45.272;9.984;2022-11-06T01:19:23;11.10;99.90
49615;DHT22;35517;45.272;9.984;2022-11-06T01:21:51;11.20;99.90
49615;DHT22;35517;45.272;9.984;2022-11-06T01:24:23;11.10;99.90
49615;DHT22;35517;45.272;9.984;2022-11-06T01:26:51;11.10;99.90
49615;DHT22;35517;45.272;9.984;2022-11-06T01:29:19;11.10;99.90
49615;DHT22;35517;45.272;9.984;2022-11-06T01:31:46;11.10;99.90
49615;DHT22;35517;45.272;9.984;2022-11-06T01:34:15;11.10;99.90
49615;DHT22;35517;45.272;9.984;2022-11-06T01:36:41;11.00;99.90
49615;DHT22;35517;45.272;9.984;2022-11-06T01:39:10;11.00;99.90
49615;DHT22;35517;45.272;9.984;2022-11-06T01:41:44;11.00;99.90
49615;DHT22;35517;45.272;9.984;2022-11-06T01:47:26;11.00;99.90
49615;DHT22;35517;45.272;9.984;2022-11-06T01:50:01;11.00;99.90
49615;DHT22;35517;45.272;9.984;2022-11-06T01:52:28;10.90;99.90
49615;DHT22;35517;45.272;9.984;2022-11-06T01:54:58;10.90;99.90
49615;DHT22;35517;45.272;9.984;2022-11-06T01:57:25;10.90;99.90
49615;DHT22;35517;45.272;9.984;2022-11-06T01:59:52;10.90;99.90
49615;DHT22;35517;45.272;9.984;2022-11-06T02:02:19;10.90;99.90
49615;DHT22;35517;45.272;9.984;2022-11-06T02:04:47;10.90;99.90
49615;DHT22;35517;45.272;9.984;2022-11-06T02:07:15;10.80;99.90
49615;DHT22;35517;45.272;9.984;2022-11-06T02:09:43;10.80;99.90
49615;DHT22;35517;45.272;9.984;2022-11-06T02:17:36;10.60;99.90
49615;DHT22;35517;45.272;9.984;2022-11-06T02:21:10;10.60;99.90
49615;DHT22;35517;45.272;9.984;2022-11-06T02:23:54;10.50;99.90
49615;DHT22;35517;45.272;9.984;2022-11-06T02:29:20;10.60;99.90
49615;DHT22;35517;45.272;9.984;2022-11-06T02:31:51;10.50;99.90
49615;DHT22;35517;45.272;9.984;2022-11-06T02:34:23;10.50;99.90
49615;DHT22;35517;45.272;9.984;2022-11-06T02:37:02;10.50;99.90
49615;DHT22;35517;45.272;9.984;2022-11-06T02:39:31;10.50;99.90
49615;DHT22;35517;45.272;9.984;2022-11-06T02:41:59;10.40;99.90
49615;DHT22;35517;45.272;9.984;2022-11-06T02:44:28;10.40;99.90
49615;DHT22;35517;45.272;9.984;2022-11-06T02:46:59;10.50;99.90
49615;DHT22;35517;45.272;9.984;2022-11-06T02:54:48;10.50;99.90
49615;DHT22;35517;45.272;9.984;2022-11-06T02:57:16;10.30;99.90
49615;DHT22;35517;45.272;9.984;2022-11-06T02:59:51;10.30;99.90
49615;DHT22;35517;45.272;9.984;2022-11-06T03:02:25;10.30;99.90
49615;DHT22;35517;45.272;9.984;2022-11-06T03:04:54;10.20;99.90
49615;DHT22;35517;45.272;9.984;2022-11-06T03:07:27;10.20;99.90
49615;DHT22;35517;45.272;9.984;2022-11-06T03:09:56;10.30;99.90
49615;DHT22;35517;45.272;9.984;2022-11-06T03:12:30;10.30;99.90
49615;DHT22;35517;45.272;9.984;2022-11-06T03:16:02;10.30;99.90
49615;DHT22;35517;45.272;9.984;2022-11-06T03:18:17;10.30;99.90
49615;DHT22;35517;45.272;9.984;2022-11-06T03:21:07;10.30;99.90
49615;DHT22;35517;45.272;9.984;2022-11-06T03:23:47;10.30;99.90
49615;DHT22;35517;45.272;9.984;2022-11-06T03:26:46;10.30;99.90
49615;DHT22;35517;45.272;9.984;2022-11-06T03:31:50;10.30;99.90
49615;DHT22;35517;45.272;9.984;2022-11-06T04:26:23;9.90;99.90
49615;DHT22;35517;45.272;9.984;2022-11-06T05:40:16;9.50;99.90
49615;DHT22;35517;45.272;9.984;2022-11-06T08:01:17;15.40;96.20
49615;DHT22;35517;45.272;9.984;2022-11-06T08:03:43;15.10;96.50
